createdAt,value
2022-08-20T00:00:01.862Z,6.60
2022-08-20T00:02:05.132Z,10.30
2022-08-20T00:04:07.990Z,6.05
2022-08-20T00:06:15.289Z,6.35
2022-08-20T00:08:18.062Z,5.80
2022-08-20T00:10:22.784Z,4.65
2022-08-20T00:12:25.646Z,6.43
2022-08-20T00:14:29.843Z,7.07
2022-08-20T00:16:38.689Z,5.45
2022-08-20T00:18:42.319Z,7.13
2022-08-20T00:20:51.307Z,4.70
2022-08-20T00:22:54.222Z,6.25
2022-08-20T00:24:57.100Z,5.75
2022-08-20T00:26:59.976Z,6.30
2022-08-20T00:29:02.809Z,5.03
2022-08-20T00:31:10.567Z,5.82
2022-08-20T00:33:16.703Z,7.03
2022-08-20T00:35:23.345Z,6.25
2022-08-20T00:37:26.141Z,4.45
2022-08-20T00:39:29.013Z,6.55
2022-08-20T00:41:31.990Z,7.07
2022-08-20T00:43:37.611Z,3.88
2022-08-20T00:45:40.468Z,6.20
2022-08-20T00:47:51.171Z,4.57
2022-08-20T00:49:54.332Z,6.15
2022-08-20T00:52:00.344Z,6.88
2022-08-20T00:54:07.719Z,5.53
2022-08-20T00:56:13.527Z,6.05
2022-08-20T00:58:16.582Z,5.40
2022-08-20T01:00:23.924Z,9.40
2022-08-20T01:02:29.982Z,14.80
2022-08-20T01:04:36.138Z,6.22
2022-08-20T01:06:39.228Z,5.50
2022-08-20T01:08:43.425Z,6.47
2022-08-20T01:10:50.018Z,4.70
2022-08-20T01:12:58.987Z,5.03
2022-08-20T01:15:04.190Z,4.47
2022-08-20T01:17:09.640Z,3.65
2022-08-20T01:19:29.665Z,2.40
2022-08-20T01:21:34.471Z,2.60
2022-08-20T01:23:45.819Z,5.40
2022-08-20T01:25:53.416Z,2.85
2022-08-20T01:27:57.566Z,2.15
2022-08-20T01:30:06.222Z,3.50
2022-08-20T01:32:09.859Z,1.90
2022-08-20T01:34:15.874Z,2.20
2022-08-20T01:36:22.421Z,4.28
2022-08-20T01:38:25.520Z,2.88
2022-08-20T01:40:56.385Z,2.88
2022-08-20T01:42:59.919Z,6.07
2022-08-20T01:45:03.775Z,3.47
2022-08-20T01:49:23.055Z,4.88
2022-08-20T01:51:29.617Z,3.05
2022-08-20T01:53:35.340Z,5.60
2022-08-20T01:55:38.745Z,2.67
2022-08-20T01:57:43.207Z,2.30
2022-08-20T01:59:46.442Z,1.95
2022-08-20T02:01:49.455Z,2.10
2022-08-20T02:03:53.907Z,3.88
2022-08-20T02:05:57.093Z,3.08
2022-08-20T02:08:00.658Z,2.90
2022-08-20T02:10:04.154Z,2.25
2022-08-20T02:12:09.046Z,5.30
2022-08-20T02:14:16.936Z,4.43
2022-08-20T02:16:22.654Z,4.03
2022-08-20T02:18:25.476Z,3.08
2022-08-20T02:20:31.863Z,1.90
2022-08-20T02:22:40.477Z,2.15
2022-08-20T02:24:52.877Z,1.88
2022-08-20T02:26:56.146Z,2.38
2022-08-20T02:29:01.142Z,2.65
2022-08-20T02:31:08.442Z,2.38
2022-08-20T02:33:14.605Z,1.60
2022-08-20T02:35:18.547Z,4.60
2022-08-20T02:37:21.375Z,5.00
2022-08-20T02:39:24.180Z,2.65
2022-08-20T02:41:27.031Z,3.38
2022-08-20T02:43:31.988Z,3.05
2022-08-20T02:45:37.273Z,4.10
2022-08-20T02:47:41.997Z,1.88
2022-08-20T02:49:44.908Z,2.55
2022-08-20T02:51:48.248Z,1.67
2022-08-20T02:53:51.276Z,2.17
2022-08-20T02:55:54.136Z,3.38
2022-08-20T02:57:59.809Z,2.67
2022-08-20T03:00:03.987Z,3.17
2022-08-20T03:02:06.943Z,3.80
2022-08-20T03:04:11.381Z,3.03
2022-08-20T03:06:16.025Z,2.83
2022-08-20T03:08:19.005Z,2.17
2022-08-20T03:10:25.677Z,4.15
2022-08-20T03:12:28.626Z,4.63
2022-08-20T03:14:31.469Z,1.83
2022-08-20T03:16:35.432Z,2.65
2022-08-20T03:18:41.766Z,1.55
2022-08-20T03:20:46.698Z,1.90
2022-08-20T03:22:55.318Z,2.58
2022-08-20T03:24:58.108Z,1.95
2022-08-20T03:27:01.582Z,4.38
2022-08-20T03:29:04.561Z,2.20
2022-08-20T03:31:07.861Z,3.38
2022-08-20T03:33:11.194Z,3.28
2022-08-20T03:35:16.083Z,3.25
2022-08-20T03:37:20.320Z,2.00
2022-08-20T03:39:23.140Z,1.95
2022-08-20T03:41:26.068Z,2.58
2022-08-20T03:43:29.003Z,2.15
2022-08-20T03:45:33.746Z,2.50
2022-08-20T03:47:36.743Z,3.10
2022-08-20T03:49:39.569Z,1.92
2022-08-20T03:51:56.457Z,3.78
2022-08-20T03:54:02.758Z,2.67
2022-08-20T03:56:07.161Z,4.22
2022-08-20T04:00:15.204Z,2.47
2022-08-20T04:02:18.379Z,4.10
2022-08-20T04:04:22.092Z,3.10
2022-08-20T04:06:25.116Z,4.13
2022-08-20T04:08:30.675Z,1.98
2022-08-20T04:10:35.449Z,2.35
2022-08-20T04:12:40.744Z,2.67
2022-08-20T04:14:52.135Z,2.10
2022-08-20T04:16:54.936Z,2.53
2022-08-20T04:19:02.519Z,2.35
2022-08-20T04:21:06.392Z,2.03
2022-08-20T04:23:10.242Z,2.85
2022-08-20T04:25:16.069Z,4.60
2022-08-20T04:27:21.186Z,2.70
2022-08-20T04:29:24.799Z,3.28
2022-08-20T04:31:33.901Z,2.90
2022-08-20T04:33:36.905Z,2.80
2022-08-20T04:35:39.673Z,6.03
2022-08-20T04:37:43.131Z,2.15
2022-08-20T04:40:06.424Z,2.97
2022-08-20T04:42:09.395Z,3.08
2022-08-20T04:44:13.793Z,3.92
2022-08-20T04:48:23.809Z,2.90
2022-08-20T04:50:26.940Z,3.55
2022-08-20T04:52:32.791Z,3.60
2022-08-20T04:54:35.655Z,3.90
2022-08-20T04:56:39.588Z,2.05
2022-08-20T04:58:47.920Z,4.80
2022-08-20T05:00:55.331Z,3.25
2022-08-20T05:02:58.467Z,2.33
2022-08-20T05:05:01.434Z,2.70
2022-08-20T05:07:04.639Z,2.17
2022-08-20T05:09:07.551Z,3.55
2022-08-20T05:11:33.578Z,2.67
2022-08-20T05:13:33.826Z,3.30
2022-08-20T05:15:38.582Z,3.08
2022-08-20T05:17:44.279Z,3.63
2022-08-20T05:19:47.540Z,4.57
2022-08-20T05:21:53.513Z,3.83
2022-08-20T05:23:56.444Z,4.10
2022-08-20T05:25:59.738Z,5.45
2022-08-20T05:28:09.230Z,10.05
2022-08-20T05:30:13.485Z,11.07
2022-08-20T05:32:16.829Z,13.05
2022-08-20T05:34:21.266Z,14.38
2022-08-20T05:36:24.097Z,15.77
2022-08-20T05:38:29.603Z,17.00
2022-08-20T05:40:33.382Z,13.77
2022-08-20T05:42:36.279Z,19.70
2022-08-20T05:44:39.563Z,8.77
2022-08-20T05:46:43.940Z,6.70
2022-08-20T05:50:54.300Z,7.05
2022-08-20T05:52:57.132Z,6.25
2022-08-20T05:54:59.935Z,5.85
2022-08-20T05:57:02.774Z,5.40
2022-08-20T05:59:07.311Z,3.55
2022-08-20T06:01:10.219Z,5.45
2022-08-20T06:03:31.099Z,4.35
2022-08-20T06:05:34.438Z,3.10
2022-08-20T06:07:39.415Z,6.93
2022-08-20T06:09:44.431Z,3.13
2022-08-20T06:11:47.634Z,7.28
2022-08-20T06:13:50.486Z,3.75
2022-08-20T06:15:55.057Z,3.35
2022-08-20T06:17:58.958Z,6.88
2022-08-20T06:20:06.926Z,3.45
2022-08-20T06:22:19.836Z,3.58
2022-08-20T06:24:31.923Z,3.83
2022-08-20T06:28:38.560Z,2.05
2022-08-20T06:30:41.404Z,2.42
2022-08-20T06:32:44.218Z,2.88
2022-08-20T06:34:49.890Z,4.43
2022-08-20T06:36:53.683Z,4.05
2022-08-20T06:38:58.340Z,3.20
2022-08-20T06:41:02.921Z,2.65
2022-08-20T06:43:09.795Z,5.28
2022-08-20T06:45:13.800Z,2.53
2022-08-20T06:47:17.997Z,2.60
2022-08-20T06:49:20.847Z,2.75
2022-08-20T06:51:23.703Z,2.55
2022-08-20T06:53:26.577Z,3.30
2022-08-20T06:55:30.554Z,3.13
2022-08-20T06:57:34.746Z,2.28
2022-08-20T06:59:37.707Z,3.40
2022-08-20T07:01:40.833Z,1.70
2022-08-20T07:03:54.642Z,2.20
2022-08-20T07:05:59.389Z,2.05
2022-08-20T07:08:02.526Z,3.27
2022-08-20T07:10:07.361Z,2.50
2022-08-20T07:12:10.523Z,2.70
2022-08-20T07:14:15.236Z,2.25
2022-08-20T07:16:18.128Z,3.78
2022-08-20T07:18:27.912Z,7.05
2022-08-20T07:20:34.384Z,3.03
2022-08-20T07:22:37.623Z,5.05
2022-08-20T07:24:41.998Z,7.55
2022-08-20T07:26:46.524Z,9.80
2022-08-20T07:28:49.357Z,5.13
2022-08-20T07:31:13.439Z,8.27
2022-08-20T07:33:18.678Z,9.57
2022-08-20T07:35:24.651Z,7.55
2022-08-20T07:37:27.505Z,7.50
2022-08-20T07:39:30.388Z,15.20
2022-08-20T07:41:35.267Z,4.18
2022-08-20T07:43:39.460Z,3.00
2022-08-20T07:45:42.984Z,2.90
2022-08-20T07:47:53.476Z,9.32
2022-08-20T07:49:56.309Z,5.75
2022-08-20T07:51:59.209Z,4.95
2022-08-20T07:54:02.133Z,5.03
2022-08-20T07:56:07.370Z,2.72
2022-08-20T07:58:13.127Z,5.13
2022-08-20T08:00:17.529Z,3.30
2022-08-20T08:04:25.634Z,3.00
2022-08-20T08:06:31.774Z,4.30
2022-08-20T08:08:35.833Z,4.05
2022-08-20T08:10:39.525Z,2.63
2022-08-20T08:12:47.628Z,3.85
2022-08-20T08:14:51.589Z,4.80
2022-08-20T08:16:57.223Z,3.70
2022-08-20T08:19:02.066Z,5.57
2022-08-20T08:21:08.724Z,2.90
2022-08-20T08:23:24.684Z,2.72
2022-08-20T08:25:34.684Z,4.95
2022-08-20T08:27:38.128Z,2.20
2022-08-20T08:29:41.022Z,2.40
2022-08-20T08:31:43.926Z,5.65
2022-08-20T08:33:46.769Z,4.25
2022-08-20T08:35:49.588Z,2.10
2022-08-20T08:37:54.659Z,3.00
2022-08-20T08:39:57.572Z,3.35
2022-08-20T08:42:03.031Z,2.63
2022-08-20T08:44:21.263Z,2.65
2022-08-20T08:46:28.129Z,2.10
2022-08-20T08:48:37.170Z,1.50
2022-08-20T08:50:54.005Z,3.05
2022-08-20T08:53:00.759Z,2.63
2022-08-20T08:55:07.306Z,3.20
2022-08-20T08:57:11.536Z,1.63
2022-08-20T08:59:14.825Z,3.63
2022-08-20T09:01:55.359Z,1.30
2022-08-20T09:03:47.011Z,4.32
2022-08-20T09:05:53.091Z,1.40
2022-08-20T09:07:56.351Z,2.63
2022-08-20T09:10:02.351Z,2.80
2022-08-20T09:12:09.454Z,2.25
2022-08-20T09:14:12.803Z,1.77
2022-08-20T09:16:16.123Z,3.42
2022-08-20T09:18:19.005Z,3.22
2022-08-20T09:20:27.007Z,1.77
2022-08-20T09:22:30.834Z,3.05
2022-08-20T09:24:33.654Z,1.95
2022-08-20T09:26:39.252Z,3.05
2022-08-20T09:28:42.234Z,3.50
2022-08-20T09:30:45.346Z,3.38
2022-08-20T09:32:49.559Z,1.75
2022-08-20T09:34:56.267Z,4.07
2022-08-20T09:36:59.112Z,3.15
2022-08-20T09:39:02.662Z,1.40
2022-08-20T09:41:06.022Z,1.15
2022-08-20T09:43:10.352Z,1.52
2022-08-20T09:47:17.301Z,0.80
2022-08-20T09:49:20.170Z,2.50
2022-08-20T09:51:23.763Z,1.33
2022-08-20T09:53:26.602Z,1.38
2022-08-20T09:55:34.878Z,3.53
2022-08-20T09:57:37.770Z,1.75
2022-08-20T09:59:42.140Z,0.88
2022-08-20T10:03:50.113Z,1.30
2022-08-20T10:05:53.020Z,4.80
2022-08-20T10:07:56.033Z,1.40
2022-08-20T10:09:58.951Z,0.60
2022-08-20T10:12:01.784Z,0.63
2022-08-20T10:14:05.123Z,0.22
2022-08-20T10:16:09.633Z,0.80
2022-08-20T10:18:12.586Z,0.52
2022-08-20T10:20:18.261Z,3.13
2022-08-20T10:22:21.104Z,0.57
2022-08-20T10:24:24.571Z,0.93
2022-08-20T10:26:27.893Z,1.10
2022-08-20T10:28:31.148Z,1.33
2022-08-20T10:30:34.250Z,0.38
2022-08-20T10:32:38.490Z,0.30
2022-08-20T10:36:44.744Z,1.00
2022-08-20T10:38:48.926Z,1.83
2022-08-20T10:40:52.642Z,0.93
2022-08-20T10:42:55.669Z,0.57
2022-08-20T10:44:58.595Z,1.10
2022-08-20T10:47:14.342Z,0.75
2022-08-20T10:49:18.590Z,0.90
2022-08-20T10:53:35.911Z,0.50
2022-08-20T10:55:38.858Z,0.40
2022-08-20T10:57:43.722Z,0.60
2022-08-20T10:59:49.236Z,1.52
2022-08-20T11:01:52.140Z,0.50
2022-08-20T11:03:55.397Z,0.20
2022-08-20T11:05:59.725Z,0.30
2022-08-20T11:08:04.202Z,0.47
2022-08-20T11:10:13.477Z,1.48
2022-08-20T11:12:18.847Z,1.10
2022-08-20T11:14:21.826Z,0.38
2022-08-20T11:16:24.845Z,0.73
2022-08-20T11:18:27.718Z,0.52
2022-08-20T11:20:31.999Z,0.40
2022-08-20T11:24:39.584Z,0.30
2022-08-20T11:26:42.847Z,0.43
2022-08-20T11:28:45.926Z,2.10
2022-08-20T11:30:50.108Z,1.05
2022-08-20T11:34:55.896Z,0.25
2022-08-20T11:36:59.927Z,0.80
2022-08-20T11:39:05.085Z,0.45
2022-08-20T11:41:08.048Z,1.92
2022-08-20T11:43:16.282Z,0.82
2022-08-20T11:45:20.206Z,0.60
2022-08-20T11:47:27.217Z,0.90
2022-08-20T11:49:30.430Z,0.28
2022-08-20T11:51:39.078Z,0.50
2022-08-20T11:53:52.323Z,0.40
2022-08-20T11:55:56.772Z,0.30
2022-08-20T11:58:00.987Z,0.90
2022-08-20T12:00:08.874Z,0.52
2022-08-20T12:02:12.690Z,0.43
2022-08-20T12:04:15.669Z,0.45
2022-08-20T12:06:18.726Z,0.47
2022-08-20T12:08:24.970Z,0.75
2022-08-20T12:10:31.201Z,0.40
2022-08-20T12:12:35.588Z,0.50
2022-08-20T12:14:38.678Z,0.45
2022-08-20T12:16:41.662Z,0.98
2022-08-20T12:18:45.060Z,0.73
2022-08-20T12:20:48.221Z,0.47
2022-08-20T12:22:55.161Z,0.32
2022-08-20T12:24:58.526Z,1.08
2022-08-20T12:27:11.102Z,0.45
2022-08-20T12:29:15.389Z,0.50
2022-08-20T12:31:18.465Z,0.60
2022-08-20T12:33:21.409Z,1.02
2022-08-20T12:35:24.936Z,1.25
2022-08-20T12:37:30.550Z,0.40
2022-08-20T12:39:34.604Z,2.45
2022-08-20T12:41:37.550Z,1.10
2022-08-20T12:43:40.493Z,2.00
2022-08-20T12:45:44.751Z,1.88
2022-08-20T12:47:48.515Z,0.80
2022-08-20T12:49:54.049Z,0.82
2022-08-20T12:51:56.954Z,1.75
2022-08-20T12:53:59.927Z,0.60
2022-08-20T12:56:05.127Z,4.93
2022-08-20T12:58:10.818Z,4.57
2022-08-20T13:00:19.237Z,2.35
2022-08-20T13:02:23.762Z,0.60
2022-08-20T13:04:26.861Z,1.80
2022-08-20T13:06:29.789Z,6.55
2022-08-20T13:08:32.701Z,2.70
2022-08-20T13:10:44.035Z,2.13
2022-08-20T13:12:46.978Z,1.70
2022-08-20T13:14:49.955Z,1.08
2022-08-20T13:16:56.662Z,1.60
2022-08-20T13:19:00.921Z,6.07
2022-08-20T13:21:03.766Z,10.48
2022-08-20T13:23:07.174Z,1.25
2022-08-20T13:25:12.814Z,1.55
2022-08-20T13:27:17.732Z,0.95
2022-08-20T13:29:21.684Z,3.67
2022-08-20T13:31:24.541Z,2.33
2022-08-20T13:33:27.410Z,2.45
2022-08-20T13:35:32.174Z,2.00
2022-08-20T13:37:35.510Z,1.52
2022-08-20T13:39:40.067Z,4.63
2022-08-20T13:41:43.593Z,2.45
2022-08-20T13:43:46.721Z,3.67
2022-08-20T13:45:49.569Z,2.20
2022-08-20T13:47:54.315Z,4.88
2022-08-20T13:49:58.878Z,2.33
2022-08-20T13:52:03.336Z,3.30
2022-08-20T13:54:06.218Z,2.22
2022-08-20T13:56:13.728Z,4.80
2022-08-20T13:58:17.355Z,4.45
2022-08-20T14:00:31.330Z,3.17
2022-08-20T14:02:35.416Z,2.90
2022-08-20T14:04:38.918Z,2.40
2022-08-20T14:06:41.739Z,3.50
2022-08-20T14:08:46.105Z,2.22
2022-08-20T14:10:53.564Z,3.25
2022-08-20T14:12:56.594Z,3.90
2022-08-20T14:14:59.628Z,4.13
2022-08-20T14:17:16.362Z,3.78
2022-08-20T14:19:19.201Z,2.65
2022-08-20T14:21:21.996Z,4.57
2022-08-20T14:23:24.898Z,3.95
2022-08-20T14:25:31.263Z,2.90
2022-08-20T14:27:34.615Z,4.18
2022-08-20T14:29:39.663Z,5.10
2022-08-20T14:31:42.459Z,2.30
2022-08-20T14:33:45.244Z,2.88
2022-08-20T14:35:48.061Z,2.75
2022-08-20T14:37:53.369Z,2.83
2022-08-20T14:39:58.218Z,2.80
2022-08-20T14:42:02.417Z,2.72
2022-08-20T14:44:05.583Z,3.22
2022-08-20T14:46:08.475Z,2.35
2022-08-20T14:48:11.343Z,2.45
2022-08-20T14:50:16.442Z,2.38
2022-08-20T14:52:21.201Z,3.15
2022-08-20T14:54:24.041Z,2.53
2022-08-20T14:56:26.899Z,2.60
2022-08-20T14:58:31.170Z,2.70
2022-08-20T15:00:34.627Z,3.42
2022-08-20T15:02:37.891Z,3.97
2022-08-20T15:04:41.893Z,2.30
2022-08-20T15:06:45.147Z,2.92
2022-08-20T15:08:48.222Z,2.00
2022-08-20T15:10:51.092Z,2.42
2022-08-20T15:12:54.703Z,2.08
2022-08-20T15:14:59.690Z,1.75
2022-08-20T15:17:07.683Z,2.45
2022-08-20T15:19:10.448Z,2.55
2022-08-20T15:21:14.338Z,1.95
2022-08-20T15:23:17.151Z,3.42
2022-08-20T15:25:23.093Z,3.33
2022-08-20T15:27:27.041Z,3.38
2022-08-20T15:29:29.866Z,2.63
2022-08-20T15:31:34.149Z,2.92
2022-08-20T15:33:37.024Z,3.63
2022-08-20T15:35:40.132Z,3.00
2022-08-20T15:37:45.156Z,4.53
2022-08-20T15:39:49.058Z,2.45
2022-08-20T15:41:51.981Z,4.35
2022-08-20T15:43:54.855Z,1.35
2022-08-20T15:45:58.857Z,1.63
2022-08-20T15:48:10.705Z,1.85
2022-08-20T15:50:33.925Z,5.03
2022-08-20T15:52:42.224Z,2.85
2022-08-20T15:54:46.543Z,3.30
2022-08-20T15:57:02.073Z,1.90
2022-08-20T15:59:14.882Z,2.20
2022-08-20T16:01:28.545Z,5.40
2022-08-20T16:03:53.866Z,2.38
2022-08-20T16:06:02.411Z,2.08
2022-08-20T16:08:14.427Z,4.22
2022-08-20T16:10:23.249Z,1.85
2022-08-20T16:12:33.741Z,4.93
2022-08-20T16:14:40.134Z,3.05
2022-08-20T16:16:47.035Z,3.15
2022-08-20T16:18:53.796Z,4.60
2022-08-20T16:21:01.790Z,4.22
2022-08-20T16:23:06.943Z,4.40
2022-08-20T16:25:10.208Z,5.00
2022-08-20T16:27:17.483Z,3.05
2022-08-20T16:29:27.392Z,6.55
2022-08-20T16:31:40.846Z,2.60
2022-08-20T16:33:48.548Z,2.15
2022-08-20T16:35:58.327Z,4.78
2022-08-20T16:38:08.399Z,2.85
2022-08-20T16:40:23.311Z,3.67
2022-08-20T16:42:33.959Z,4.28
2022-08-20T16:44:39.726Z,2.15
2022-08-20T16:46:48.264Z,3.58
2022-08-20T16:48:57.863Z,3.45
2022-08-20T16:51:06.244Z,2.72
2022-08-20T16:53:21.529Z,1.90
2022-08-20T16:55:25.205Z,4.40
2022-08-20T16:57:29.532Z,1.83
2022-08-20T16:59:33.418Z,2.25
2022-08-20T17:01:37.214Z,1.95
2022-08-20T17:03:50.057Z,3.25
2022-08-20T17:05:55.742Z,2.95
2022-08-20T17:08:03.396Z,4.93
2022-08-20T17:10:17.287Z,5.40
2022-08-20T17:12:22.570Z,3.55
2022-08-20T17:14:25.468Z,3.50
2022-08-20T17:16:35.296Z,2.85
2022-08-20T17:18:40.755Z,2.85
2022-08-20T17:20:45.992Z,2.08
2022-08-20T17:22:51.227Z,2.58
2022-08-20T17:24:56.416Z,2.47
2022-08-20T17:27:01.741Z,3.60
2022-08-20T17:29:13.449Z,4.35
2022-08-20T17:31:21.162Z,2.60
2022-08-20T17:33:40.538Z,1.98
2022-08-20T17:35:49.458Z,3.10
2022-08-20T17:37:54.087Z,2.60
2022-08-20T17:40:10.146Z,3.97
2022-08-20T17:42:18.428Z,2.30
2022-08-20T17:44:24.495Z,3.42
2022-08-20T17:46:30.144Z,2.50
2022-08-20T17:48:38.614Z,3.95
2022-08-20T17:50:44.042Z,3.20
2022-08-20T17:52:50.816Z,3.22
2022-08-20T17:54:53.690Z,4.10
2022-08-20T17:57:02.511Z,3.85
2022-08-20T17:59:10.670Z,2.55
2022-08-20T18:01:15.559Z,2.45
2022-08-20T18:03:22.419Z,2.78
2022-08-20T18:05:25.691Z,4.13
2022-08-20T18:07:33.569Z,5.07
2022-08-20T18:09:44.636Z,4.28
2022-08-20T18:11:57.253Z,2.65
2022-08-20T18:14:18.583Z,5.22
2022-08-20T18:16:27.520Z,4.95
2022-08-20T18:18:35.847Z,2.92
2022-08-20T18:21:17.101Z,4.55
2022-08-20T18:23:26.313Z,2.40
2022-08-20T18:25:38.039Z,8.20
2022-08-20T18:27:47.460Z,4.45
2022-08-20T18:29:56.404Z,4.55
2022-08-20T18:32:02.112Z,5.55
2022-08-20T18:34:11.431Z,3.50
2022-08-20T18:36:26.582Z,4.53
2022-08-20T18:38:31.547Z,5.57
2022-08-20T18:40:34.556Z,6.93
2022-08-20T18:42:38.733Z,3.50
2022-08-20T18:44:44.174Z,4.10
2022-08-20T18:46:56.976Z,5.07
2022-08-20T18:49:01.834Z,2.65
2022-08-20T18:51:11.396Z,3.70
2022-08-20T18:53:18.343Z,4.80
2022-08-20T18:55:34.052Z,7.88
2022-08-20T18:57:41.650Z,6.43
2022-08-20T18:59:55.414Z,4.43
2022-08-20T19:02:00.781Z,5.60
2022-08-20T19:04:19.086Z,3.75
2022-08-20T19:06:32.480Z,6.57
2022-08-20T19:08:43.817Z,4.72
2022-08-20T19:10:50.849Z,6.75
2022-08-20T19:13:27.598Z,5.90
2022-08-20T19:15:33.007Z,5.03
2022-08-20T19:17:49.925Z,6.07
2022-08-20T19:20:00.262Z,5.35
2022-08-20T19:22:04.377Z,5.97
2022-08-20T19:24:09.103Z,6.28
2022-08-20T19:26:25.837Z,4.45
2022-08-20T19:28:31.590Z,4.85
2022-08-20T19:30:37.804Z,4.28
2022-08-20T19:32:52.297Z,5.65
2022-08-20T19:34:57.675Z,5.50
2022-08-20T19:37:09.075Z,4.53
2022-08-20T19:39:28.141Z,4.75
2022-08-20T19:41:36.334Z,7.22
2022-08-20T19:43:44.255Z,5.72
2022-08-20T19:45:50.073Z,7.70
2022-08-20T19:48:10.397Z,5.03
2022-08-20T19:50:22.656Z,6.78
2022-08-20T19:52:38.386Z,3.58
2022-08-20T19:54:48.476Z,7.22
2022-08-20T19:56:52.234Z,7.55
2022-08-20T19:59:03.359Z,7.95
2022-08-20T20:01:16.434Z,5.88
2022-08-20T20:03:23.995Z,6.00
2022-08-20T20:05:26.922Z,8.23
2022-08-20T20:07:36.572Z,8.15
2022-08-20T20:09:43.013Z,5.60
2022-08-20T20:11:50.817Z,8.00
2022-08-20T20:13:53.897Z,8.32
2022-08-20T20:16:00.554Z,8.55
2022-08-20T20:18:03.525Z,6.07
2022-08-20T20:20:22.895Z,8.13
2022-08-20T20:22:29.399Z,6.65
2022-08-20T20:24:43.201Z,6.00
2022-08-20T20:26:49.529Z,3.97
2022-08-20T20:28:55.743Z,5.70
2022-08-20T20:31:07.250Z,8.80
2022-08-20T20:33:16.303Z,10.25
2022-08-20T20:35:28.130Z,8.55
2022-08-20T20:37:49.400Z,5.68
2022-08-20T20:40:01.730Z,11.77
2022-08-20T20:42:09.172Z,7.65
2022-08-20T20:44:20.873Z,6.95
2022-08-20T20:46:27.528Z,8.90
2022-08-20T20:48:45.933Z,7.68
2022-08-20T20:50:52.906Z,11.15
2022-08-20T20:52:59.903Z,7.57
2022-08-20T20:55:13.130Z,4.77
2022-08-20T20:57:36.486Z,7.65
2022-08-20T20:59:41.732Z,9.05
2022-08-20T21:01:48.340Z,9.63
2022-08-20T21:03:52.732Z,6.57
2022-08-20T21:05:57.758Z,6.65
2022-08-20T21:08:04.231Z,11.88
2022-08-20T21:10:07.839Z,8.55
2022-08-20T21:12:12.186Z,5.75
2022-08-20T21:16:18.463Z,8.48
2022-08-20T21:18:25.440Z,5.68
2022-08-20T21:20:29.677Z,6.38
2022-08-20T21:22:34.732Z,8.82
2022-08-20T21:24:37.584Z,7.43
2022-08-20T21:26:40.663Z,6.50
2022-08-20T21:28:43.608Z,6.22
2022-08-20T21:30:46.544Z,8.57
2022-08-20T21:32:49.488Z,8.95
2022-08-20T21:34:52.835Z,9.63
2022-08-20T21:36:55.787Z,9.45
2022-08-20T21:39:02.176Z,9.20
2022-08-20T21:41:05.207Z,10.07
2022-08-20T21:43:08.195Z,14.52
2022-08-20T21:45:15.382Z,9.07
2022-08-20T21:47:21.613Z,7.30
2022-08-20T21:49:25.577Z,7.32
2022-08-20T21:51:28.440Z,6.85
2022-08-20T21:53:31.867Z,10.05
2022-08-20T21:55:39.514Z,14.52
2022-08-20T21:57:48.161Z,10.10
2022-08-20T21:59:56.989Z,7.95
2022-08-20T22:02:00.583Z,5.43
2022-08-20T22:04:04.255Z,10.50
2022-08-20T22:06:10.624Z,5.60
2022-08-20T22:08:13.567Z,9.00
2022-08-20T22:10:16.410Z,7.22
2022-08-20T22:12:23.573Z,8.18
2022-08-20T22:14:26.407Z,7.70
2022-08-20T22:16:29.684Z,12.02
2022-08-20T22:18:34.247Z,6.38
2022-08-20T22:20:37.295Z,14.27
2022-08-20T22:22:41.623Z,7.15
2022-08-20T22:24:48.852Z,7.22
2022-08-20T22:26:51.949Z,7.60
2022-08-20T22:28:56.743Z,9.27
2022-08-20T22:30:59.971Z,9.50
2022-08-20T22:33:04.734Z,6.65
2022-08-20T22:35:08.714Z,8.73
2022-08-20T22:37:12.274Z,7.85
2022-08-20T22:39:15.743Z,8.25
2022-08-20T22:41:19.074Z,6.83
2022-08-20T22:43:23.113Z,8.25
2022-08-20T22:45:27.450Z,8.43
2022-08-20T22:49:36.410Z,8.15
2022-08-20T22:51:42.852Z,9.23
2022-08-20T22:53:46.331Z,7.40
2022-08-20T22:55:50.274Z,7.18
2022-08-20T22:57:53.152Z,5.65
2022-08-20T22:59:56.006Z,9.10
2022-08-20T23:02:07.978Z,7.10
2022-08-20T23:04:15.317Z,6.25
2022-08-20T23:06:18.781Z,7.70
2022-08-20T23:08:21.733Z,5.07
2022-08-20T23:10:31.223Z,8.00
2022-08-20T23:12:34.147Z,7.68
2022-08-20T23:14:37.591Z,7.82
2022-08-20T23:16:43.863Z,8.37
2022-08-20T23:18:48.154Z,8.48
2022-08-20T23:22:55.309Z,12.63
2022-08-20T23:25:00.515Z,8.32
2022-08-20T23:27:04.467Z,8.40
2022-08-20T23:29:07.375Z,10.25
2022-08-20T23:31:10.283Z,7.50
2022-08-20T23:33:13.255Z,10.20
2022-08-20T23:35:18.317Z,8.45
2022-08-20T23:37:21.231Z,8.50
2022-08-20T23:39:24.883Z,7.75
2022-08-20T23:41:27.769Z,11.32
2022-08-20T23:43:30.671Z,10.05
2022-08-20T23:45:34.332Z,9.13
2022-08-20T23:47:38.676Z,6.80
2022-08-20T23:49:41.614Z,6.97
2022-08-20T23:51:45.857Z,9.32
2022-08-20T23:53:49.091Z,6.53
2022-08-20T23:55:52.151Z,6.93
2022-08-20T23:57:54.982Z,6.90
2022-08-20T23:59:58.147Z,9.27
